Terminal Aerodrome Forecast
Issued by NWS

Home | Current Version | Previous Version | Graphics & Text | Print | Product List | Glossary On
Versions: 1 2 3 4 5 6 7 8 9 10 11 12 13 14 15
000
FTUS43 KTOP 281700
TAFMHK
TAF
KMHK 281737Z 2818/2918 12011KT P6SM SKC
     FM290400 17013KT P6SM SCT020
     FM290800 19014G21KT P6SM BKN015
     FM291300 23014G21KT P6SM SCT020
     FM291500 33014G21KT P6SM SKC=

USA.gov is the U.S. government's official web portal to all federal, state and local government web resources and services.